Time;durP1;ratioP1;P1;durP2;ratioP2;P2;SDS_P1;SDS_P2;PMS_P1;PMS_P2;Temp;Humidity;BMP_temperature;BMP_pressure;BME280_temperature;BME280_humidity;BME280_pressure;Samples;Min_cycle;Max_cycle;Signal;HPM_P1;HPM_P2
2022/05/06 00:01:03;;;;;;;15.02;13.52;;;21.80;60.30;;;;;;5049592;28;20025;-79
2022/05/06 00:03:30;;;;;;;14.82;13.32;;;21.80;60.30;;;;;;5051884;28;20022;-81
2022/05/06 00:05:56;;;;;;;14.45;12.90;;;21.90;60.10;;;;;;5033525;28;20029;-78
2022/05/06 00:08:22;;;;;;;16.23;12.93;;;21.70;60.30;;;;;;5034712;28;20086;-79
2022/05/06 00:10:47;;;;;;;13.57;12.15;;;21.70;60.40;;;;;;5055496;28;20025;-79
2022/05/06 00:13:13;;;;;;;16.77;13.15;;;21.60;60.60;;;;;;5054754;28;20591;-87
2022/05/06 00:15:39;;;;;;;14.30;12.80;;;21.60;60.60;;;;;;5056890;28;20029;-89
2022/05/06 00:18:05;;;;;;;15.93;14.25;;;21.70;60.60;;;;;;5056609;28;20029;-83
2022/05/06 00:20:30;;;;;;;20.80;15.15;;;21.70;60.90;;;;;;5055110;28;20369;-80
2022/05/06 00:22:57;;;;;;;14.32;12.52;;;21.70;60.70;;;;;;5048968;28;20037;-90
2022/05/06 00:25:24;;;;;;;15.07;13.18;;;21.50;61.60;;;;;;5040480;28;20017;-78
2022/05/06 00:27:50;;;;;;;14.85;13.18;;;21.40;61.90;;;;;;5056629;28;20475;-80
2022/05/06 00:30:15;;;;;;;15.80;13.90;;;21.40;61.40;;;;;;5055591;28;20021;-88
2022/05/06 00:32:41;;;;;;;17.00;12.65;;;21.50;61.50;;;;;;5037552;28;20099;-91
2022/05/06 00:35:07;;;;;;;16.13;13.48;;;21.20;62.80;;;;;;5036453;28;20136;-80
2022/05/06 00:37:33;;;;;;;16.75;14.07;;;21.10;62.00;;;;;;5054455;28;20029;-88
2022/05/06 00:39:59;;;;;;;17.13;14.43;;;21.10;62.20;;;;;;5056687;28;20363;-80
2022/05/06 00:42:24;;;;;;;15.82;13.10;;;21.30;61.70;;;;;;5037278;28;20127;-82
2022/05/06 00:44:50;;;;;;;15.40;13.32;;;21.40;61.20;;;;;;5055235;28;20099;-82
2022/05/06 00:47:20;;;;;;;14.65;12.05;;;21.50;61.00;;;;;;5035520;28;20041;-80
2022/05/06 00:49:46;;;;;;;12.93;11.63;;;21.50;60.90;;;;;;5037685;28;20086;-84
2022/05/06 00:52:12;;;;;;;13.40;12.00;;;20.50;63.40;;;;;;5037284;28;20348;-78
2022/05/06 00:54:39;;;;;;;14.32;12.82;;;20.50;63.90;;;;;;5055138;28;20029;-79
2022/05/06 00:57:07;;;;;;;15.52;12.88;;;20.70;62.80;;;;;;5054549;28;20487;-87
2022/05/06 01:00:17;;;;;;;13.55;12.15;;;21.10;61.70;;;;;;5054847;28;20064;-81
2022/05/06 01:02:20;;;;;;;14.30;12.48;;;20.60;63.00;;;;;;5054258;28;20032;-89
2022/05/06 01:04:46;;;;;;;13.48;11.70;;;20.70;62.50;;;;;;5038357;28;20025;-91
2022/05/06 01:07:13;;;;;;;13.27;11.77;;;20.90;62.60;;;;;;5051472;28;20042;-91
2022/05/06 01:09:39;;;;;;;14.02;12.13;;;21.20;61.70;;;;;;5050078;28;20086;-81
2022/05/06 01:12:06;;;;;;;13.98;12.18;;;21.30;61.40;;;;;;5055041;28;20126;-80
2022/05/06 01:14:33;;;;;;;13.52;11.27;;;21.20;61.80;;;;;;5055211;28;20025;-79
2022/05/06 01:16:59;;;;;;;14.05;12.00;;;21.00;61.90;;;;;;5053537;28;20021;-80
2022/05/06 01:19:25;;;;;;;13.95;12.40;;;21.00;62.30;;;;;;5038875;28;20021;-80
2022/05/06 01:21:53;;;;;;;14.30;12.57;;;21.00;62.20;;;;;;5034854;28;20025;-83
2022/05/06 01:24:19;;;;;;;12.63;11.32;;;21.20;62.10;;;;;;5051209;28;20021;-78
2022/05/06 01:27:02;;;;;;;13.05;11.65;;;21.40;61.60;;;;;;5035864;28;20557;-87
2022/05/06 01:29:30;;;;;;;14.50;11.32;;;21.30;61.90;;;;;;5054836;28;20111;-80
2022/05/06 01:31:57;;;;;;;15.68;12.40;;;21.20;61.60;;;;;;5036745;28;20035;-80
2022/05/06 01:34:25;;;;;;;12.30;10.52;;;20.80;62.20;;;;;;5053418;28;20021;-79
2022/05/06 01:36:53;;;;;;;13.00;11.52;;;20.70;63.00;;;;;;5054285;28;20017;-79
2022/05/06 01:39:23;;;;;;;13.00;11.60;;;20.50;64.30;;;;;;5048426;28;20376;-80
2022/05/06 01:41:52;;;;;;;16.80;13.48;;;20.80;63.20;;;;;;5040127;28;20071;-80
2022/05/06 01:44:21;;;;;;;12.30;11.00;;;20.90;61.90;;;;;;5049195;28;20032;-79
2022/05/06 01:46:47;;;;;;;12.82;11.48;;;21.00;62.80;;;;;;5036149;28;20135;-86
2022/05/06 01:49:14;;;;;;;11.65;10.32;;;21.10;61.50;;;;;;5054064;28;20028;-89
2022/05/06 01:51:42;;;;;;;13.23;11.10;;;20.90;61.90;;;;;;5036643;28;20076;-79
2022/05/06 01:54:08;;;;;;;13.55;10.55;;;20.80;62.40;;;;;;5045279;28;20041;-80
2022/05/06 01:56:34;;;;;;;12.18;10.98;;;20.60;63.30;;;;;;5054614;28;20052;-80
2022/05/06 01:59:01;;;;;;;13.77;11.65;;;20.20;64.60;;;;;;5053439;28;20031;-80
2022/05/06 02:01:26;;;;;;;16.52;12.00;;;20.50;64.30;;;;;;5035783;28;20044;-81
2022/05/06 02:06:36;;;;;;;13.00;11.60;;;21.10;63.50;;;;;;5047705;28;20403;-81
2022/05/06 02:09:02;;;;;;;13.77;12.20;;;20.90;63.70;;;;;;5053860;28;20472;-80
2022/05/06 02:11:28;;;;;;;11.70;10.25;;;21.10;62.60;;;;;;5052967;28;20099;-79
2022/05/06 02:13:55;;;;;;;12.80;10.52;;;20.90;63.60;;;;;;5035813;28;20353;-87
2022/05/06 02:16:20;;;;;;;12.35;10.68;;;20.50;65.10;;;;;;5053197;28;20025;-88
2022/05/06 02:18:46;;;;;;;12.68;11.38;;;20.70;64.80;;;;;;5054110;28;20044;-79
2022/05/06 02:21:12;;;;;;;12.27;10.40;;;20.60;65.30;;;;;;5052951;28;20029;-79
2022/05/06 02:23:38;;;;;;;10.48;9.38;;;20.10;65.70;;;;;;5052753;28;20025;-80
2022/05/06 02:26:04;;;;;;;12.50;10.85;;;19.50;67.60;;;;;;5053790;28;20120;-80
2022/05/06 02:28:29;;;;;;;12.73;10.75;;;19.60;67.60;;;;;;5052807;28;20040;-80
2022/05/06 02:33:39;;;;;;;15.10;12.23;;;20.60;63.60;;;;;;5052745;28;20044;-79
2022/05/06 02:36:06;;;;;;;12.93;10.70;;;20.90;63.00;;;;;;5035363;28;20029;-80
2022/05/06 02:38:32;;;;;;;16.00;11.75;;;21.20;62.00;;;;;;5051146;28;20029;-88
2022/05/06 02:40:59;;;;;;;12.70;11.38;;;21.30;61.40;;;;;;5036047;28;20055;-81
2022/05/06 02:43:25;;;;;;;10.85;9.60;;;21.20;61.80;;;;;;5034419;28;20071;-79
2022/05/06 02:45:51;;;;;;;10.70;9.00;;;20.30;62.70;;;;;;5052716;28;20025;-80
2022/05/06 02:48:16;;;;;;;11.48;9.57;;;19.90;64.80;;;;;;5052594;28;20505;-89
2022/05/06 02:50:43;;;;;;;11.68;9.52;;;20.40;64.00;;;;;;5034837;28;20475;-83
2022/05/06 02:53:08;;;;;;;11.88;10.27;;;20.90;63.00;;;;;;5035552;28;20033;-81
2022/05/06 02:55:34;;;;;;;11.95;9.77;;;21.10;62.90;;;;;;5035680;28;20044;-80
2022/05/06 02:58:00;;;;;;;11.60;8.70;;;21.40;61.80;;;;;;5052108;28;20024;-88
2022/05/06 03:00:27;;;;;;;11.43;8.63;;;21.60;61.00;;;;;;5035768;28;20732;-80
2022/05/06 03:02:53;;;;;;;12.50;10.10;;;21.00;61.90;;;;;;5035311;28;20036;-81
2022/05/06 03:05:19;;;;;;;12.55;10.35;;;21.00;62.20;;;;;;5031439;28;20017;-81
2022/05/06 03:07:45;;;;;;;12.60;10.77;;;21.10;62.00;;;;;;5051857;28;20095;-91
2022/05/06 03:10:10;;;;;;;11.98;10.43;;;21.40;61.30;;;;;;5051781;28;20026;-80
2022/05/06 03:12:37;;;;;;;14.82;11.77;;;21.50;60.90;;;;;;5052698;28;20108;-80
2022/05/06 03:15:05;;;;;;;11.32;9.95;;;21.50;61.00;;;;;;5032763;28;20036;-79
2022/05/06 03:17:34;;;;;;;10.50;9.40;;;21.40;61.00;;;;;;5051260;28;20106;-79
2022/05/06 03:20:01;;;;;;;13.05;10.32;;;20.60;62.90;;;;;;5053369;28;20356;-80
2022/05/06 03:22:40;;;;;;;14.88;12.30;;;20.40;64.10;;;;;;5052749;28;20036;-83
2022/05/06 03:25:07;;;;;;;13.07;11.68;;;20.80;62.70;;;;;;5033273;28;20025;-81
2022/05/06 03:30:16;;;;;;;12.85;11.55;;;21.10;61.90;;;;;;5042427;28;20562;-80
2022/05/06 03:32:42;;;;;;;13.27;10.30;;;21.30;61.80;;;;;;5034158;28;20029;-80
2022/05/06 03:35:08;;;;;;;13.25;11.13;;;21.00;62.50;;;;;;5034260;28;20123;-80
2022/05/06 03:37:36;;;;;;;10.63;9.45;;;20.70;63.10;;;;;;5052871;28;20103;-84
2022/05/06 03:40:03;;;;;;;11.15;9.95;;;20.50;63.50;;;;;;5033304;28;20064;-83
2022/05/06 03:42:28;;;;;;;12.63;10.20;;;19.60;65.10;;;;;;5053400;28;20373;-79
2022/05/06 03:44:54;;;;;;;10.32;9.23;;;19.90;64.80;;;;;;5052311;28;20518;-78
2022/05/06 03:47:21;;;;;;;9.25;8.25;;;19.70;64.60;;;;;;5052266;28;20036;-79
2022/05/06 03:51:20;;;;;;;10.35;9.23;;;18.80;66.90;;;;;;5056785;28;20017;-85
2022/05/06 03:52:34;;;;;;;10.90;9.70;;;19.30;66.30;;;;;;5036756;28;20124;-82
2022/05/06 03:54:59;;;;;;;11.18;9.05;;;20.00;64.60;;;;;;5019465;28;20075;-81
2022/05/06 03:57:25;;;;;;;10.00;8.48;;;20.70;63.50;;;;;;5056693;28;20036;-81
2022/05/06 03:59:51;;;;;;;9.43;7.13;;;20.60;62.30;;;;;;5056718;28;20048;-80
2022/05/06 04:02:16;;;;;;;8.98;6.88;;;20.50;61.50;;;;;;5038926;28;20074;-81
2022/05/06 04:04:42;;;;;;;8.48;6.28;;;19.60;63.60;;;;;;5038741;28;20087;-77
2022/05/06 04:07:08;;;;;;;8.73;6.75;;;19.20;64.20;;;;;;5037775;28;20029;-79
2022/05/06 04:09:33;;;;;;;7.38;6.18;;;18.90;65.30;;;;;;5038456;28;20037;-75
2022/05/06 04:11:59;;;;;;;7.38;6.35;;;18.20;67.00;;;;;;5056219;28;20029;-81
2022/05/06 04:14:25;;;;;;;9.65;7.00;;;18.70;67.10;;;;;;5037896;28;20061;-80
2022/05/06 04:16:51;;;;;;;11.55;7.07;;;19.50;65.30;;;;;;5056096;28;20025;-82
2022/05/06 04:19:17;;;;;;;7.85;6.22;;;20.20;63.90;;;;;;5036241;28;20025;-79
2022/05/06 04:24:26;;;;;;;7.53;6.15;;;19.00;65.20;;;;;;5041878;28;20070;-91
2022/05/06 04:26:52;;;;;;;8.43;6.05;;;19.60;64.30;;;;;;5039103;28;20033;-82
2022/05/06 04:29:18;;;;;;;7.63;6.03;;;20.00;63.00;;;;;;5037350;28;20024;-85
2022/05/06 04:31:44;;;;;;;7.82;5.75;;;19.90;62.30;;;;;;5024876;28;20036;-78
2022/05/06 04:34:09;;;;;;;8.35;6.68;;;19.30;64.60;;;;;;5042353;28;20088;-80
2022/05/06 04:36:40;;;;;;;7.80;6.70;;;19.60;64.80;;;;;;5042369;28;20018;-82
2022/05/06 04:39:06;;;;;;;7.57;5.95;;;20.30;63.60;;;;;;5025418;28;20034;-81
2022/05/06 04:41:32;;;;;;;6.75;5.97;;;21.10;61.70;;;;;;5053539;28;20139;-82
2022/05/06 04:43:58;;;;;;;8.80;6.47;;;21.60;59.90;;;;;;5038406;28;20072;-83
2022/05/06 04:46:23;;;;;;;7.85;5.97;;;21.80;59.90;;;;;;5037869;28;20191;-78
2022/05/06 04:48:49;;;;;;;7.43;5.82;;;22.00;58.70;;;;;;5037760;28;20480;-85
2022/05/06 04:51:15;;;;;;;7.32;5.80;;;20.90;60.60;;;;;;5038784;28;20021;-86
2022/05/06 04:53:40;;;;;;;6.97;5.47;;;21.00;60.80;;;;;;5056665;28;20021;-85
2022/05/06 04:56:06;;;;;;;7.47;6.00;;;20.80;60.90;;;;;;5055919;28;20460;-90
2022/05/06 04:58:32;;;;;;;6.63;5.40;;;21.20;61.10;;;;;;5055170;28;20484;-90
2022/05/06 05:00:58;;;;;;;7.80;6.25;;;21.10;60.50;;;;;;5056532;28;20032;-84
2022/05/06 05:03:23;;;;;;;9.05;6.75;;;21.40;60.30;;;;;;5038436;28;20045;-93
2022/05/06 05:05:49;;;;;;;9.00;6.22;;;21.60;60.30;;;;;;5055878;28;20040;-91
2022/05/06 05:08:15;;;;;;;7.78;6.07;;;21.90;59.80;;;;;;5038489;28;20036;-83
2022/05/06 05:10:40;;;;;;;7.97;6.07;;;22.20;58.20;;;;;;5037888;28;20025;-92
2022/05/06 05:13:06;;;;;;;8.27;5.97;;;22.50;58.90;;;;;;5041489;28;20036;-86
2022/05/06 05:15:32;;;;;;;7.57;6.15;;;22.70;57.90;;;;;;5023446;28;20035;-84
2022/05/06 05:17:58;;;;;;;10.35;7.10;;;22.90;58.30;;;;;;5037824;28;20036;-82
2022/05/06 05:20:24;;;;;;;7.80;6.40;;;22.80;58.80;;;;;;5033505;28;20021;-85
2022/05/06 05:22:50;;;;;;;7.20;6.25;;;22.90;58.80;;;;;;5023401;28;20029;-80
2022/05/06 05:25:15;;;;;;;7.13;5.82;;;23.00;58.50;;;;;;5035426;28;20580;-80
2022/05/06 05:27:41;;;;;;;7.22;6.47;;;23.20;57.70;;;;;;5016996;28;20040;-80
2022/05/06 05:30:09;;;;;;;8.57;6.20;;;23.40;57.30;;;;;;5030104;28;20039;-80
2022/05/06 05:32:36;;;;;;;7.00;5.75;;;23.50;56.90;;;;;;5054736;28;20029;-83
2022/05/06 05:35:05;;;;;;;7.85;5.97;;;23.50;56.40;;;;;;5054890;28;20100;-90
2022/05/06 05:37:30;;;;;;;10.30;6.25;;;23.70;55.60;;;;;;5033106;28;20120;-87
2022/05/06 05:39:56;;;;;;;9.48;5.80;;;23.80;56.30;;;;;;5054265;28;20428;-82
2022/05/06 05:42:23;;;;;;;7.88;6.28;;;23.90;56.30;;;;;;5051459;28;20021;-82
2022/05/06 05:50:18;;;;;;;9.13;6.40;;;24.20;55.30;;;;;;5054647;28;20036;-82
2022/05/06 05:52:44;;;;;;;8.57;6.22;;;24.20;55.50;;;;;;5037007;28;20024;-91
2022/05/06 05:55:10;;;;;;;6.82;5.47;;;24.20;54.70;;;;;;5036859;28;20060;-81
2022/05/06 05:57:36;;;;;;;6.65;5.78;;;24.40;54.70;;;;;;5036890;28;20027;-90
2022/05/06 06:00:05;;;;;;;7.93;5.55;;;24.50;54.70;;;;;;5036864;28;20025;-79
2022/05/06 06:02:31;;;;;;;6.95;6.10;;;24.60;54.50;;;;;;5054780;28;20021;-79
2022/05/06 06:04:56;;;;;;;6.20;5.35;;;24.60;54.90;;;;;;5052866;28;20028;-79
2022/05/06 06:07:23;;;;;;;7.03;5.05;;;24.30;54.60;;;;;;5051720;28;20025;-79
2022/05/06 06:09:48;;;;;;;7.05;5.90;;;23.30;56.30;;;;;;5051275;28;20033;-87
2022/05/06 06:12:14;;;;;;;7.75;6.00;;;22.60;57.80;;;;;;5051320;28;20503;-81
2022/05/06 06:14:40;;;;;;;7.63;5.45;;;22.80;58.00;;;;;;5035005;28;20032;-81
2022/05/06 06:17:05;;;;;;;7.13;5.10;;;23.30;57.30;;;;;;5053369;28;20021;-82
2022/05/06 06:19:31;;;;;;;7.80;6.30;;;23.50;56.20;;;;;;5036785;28;20029;-93
2022/05/06 06:21:57;;;;;;;8.00;6.03;;;23.90;56.10;;;;;;5036800;28;20025;-92
2022/05/06 06:24:22;;;;;;;6.25;5.55;;;24.30;55.90;;;;;;5054305;28;20032;-83
2022/05/06 06:26:48;;;;;;;7.97;5.65;;;24.60;55.10;;;;;;5036682;28;20450;-90
2022/05/06 06:29:14;;;;;;;7.85;6.57;;;24.80;54.70;;;;;;5036752;28;20094;-93
2022/05/06 06:31:39;;;;;;;9.63;6.10;;;24.90;54.80;;;;;;5054341;28;20420;-86
2022/05/06 06:34:08;;;;;;;7.85;6.35;;;25.00;54.80;;;;;;5054131;28;20088;-93
2022/05/06 06:36:34;;;;;;;7.88;5.90;;;25.10;55.30;;;;;;5036817;28;20063;-93
2022/05/06 06:39:00;;;;;;;6.80;5.65;;;25.10;54.70;;;;;;5036743;28;20021;-91
2022/05/06 06:41:27;;;;;;;6.82;5.93;;;25.10;54.20;;;;;;5053725;28;20043;-81
2022/05/06 06:43:54;;;;;;;10.75;6.45;;;24.90;54.10;;;;;;5054341;28;20151;-80
2022/05/06 06:46:19;;;;;;;7.38;5.75;;;24.90;54.70;;;;;;5053948;28;20030;-89
2022/05/06 06:48:46;;;;;;;8.35;5.93;;;24.70;55.10;;;;;;5035864;28;20044;-81
2022/05/06 06:51:11;;;;;;;8.10;6.53;;;24.70;55.40;;;;;;5036190;28;20059;-89
2022/05/06 06:53:43;;;;;;;8.05;5.50;;;24.60;56.20;;;;;;5036834;28;20119;-87
2022/05/06 06:56:08;;;;;;;9.50;6.22;;;24.70;55.70;;;;;;5035972;28;20071;-91
2022/05/06 06:58:34;;;;;;;8.65;5.93;;;24.80;55.70;;;;;;5036339;28;20056;-90
2022/05/06 07:01:00;;;;;;;7.00;5.80;;;25.00;55.70;;;;;;5035559;28;20032;-78
2022/05/06 07:03:25;;;;;;;7.82;6.03;;;24.80;55.00;;;;;;5053811;28;20071;-87
2022/05/06 07:14:03;;;;;;;8.52;6.50;;;22.60;59.80;;;;;;5054163;28;20032;-89
2022/05/06 07:16:29;;;;;;;10.77;6.18;;;22.60;60.40;;;;;;5053365;28;20029;-79
2022/05/06 07:18:58;;;;;;;8.60;7.35;;;22.80;59.90;;;;;;5053223;28;20078;-89
2022/05/06 07:21:23;;;;;;;9.60;6.90;;;22.30;62.00;;;;;;5053595;28;20017;-79
2022/05/06 07:23:49;;;;;;;7.95;6.30;;;22.90;60.20;;;;;;5053184;28;20097;-86
2022/05/06 07:26:16;;;;;;;9.00;6.88;;;22.20;62.20;;;;;;5053556;28;20353;-80
2022/05/06 07:28:41;;;;;;;7.68;6.80;;;22.00;62.80;;;;;;5053355;28;20037;-92
2022/05/06 07:31:07;;;;;;;10.80;7.05;;;22.40;62.30;;;;;;5035871;28;20378;-81
2022/05/06 07:33:33;;;;;;;11.07;6.90;;;22.60;61.50;;;;;;5053073;28;20096;-84
2022/05/06 07:35:59;;;;;;;9.18;7.18;;;22.60;60.20;;;;;;5052992;28;20025;-82
2022/05/06 07:38:25;;;;;;;8.88;7.22;;;22.50;61.30;;;;;;5035134;28;20025;-88
2022/05/06 07:40:50;;;;;;;11.68;7.28;;;22.40;59.90;;;;;;5053363;28;20032;-88
2022/05/06 07:43:16;;;;;;;8.30;6.70;;;22.30;59.90;;;;;;5034740;28;20372;-82
2022/05/06 07:45:42;;;;;;;10.43;6.90;;;22.20;59.30;;;;;;5035666;28;20025;-82
2022/05/06 07:48:09;;;;;;;11.48;7.60;;;21.60;59.60;;;;;;5052796;28;20495;-81
2022/05/06 07:50:37;;;;;;;13.13;7.50;;;21.40;60.60;;;;;;5034824;28;20393;-80
2022/05/06 07:53:03;;;;;;;15.85;7.68;;;21.60;60.10;;;;;;5035087;28;20434;-83
2022/05/06 07:55:29;;;;;;;10.27;6.70;;;21.70;59.90;;;;;;5034481;28;20467;-87
2022/05/06 07:57:57;;;;;;;8.38;7.15;;;21.50;61.30;;;;;;5052852;28;20108;-79
2022/05/06 08:00:24;;;;;;;10.23;6.82;;;21.50;59.80;;;;;;5034805;28;20025;-80
2022/05/06 08:05:34;;;;;;;9.32;7.47;;;21.90;60.80;;;;;;5052131;28;20034;-77
2022/05/06 08:08:00;;;;;;;10.10;7.13;;;22.20;58.80;;;;;;5034405;28;20025;-80
2022/05/06 08:10:25;;;;;;;12.10;7.47;;;22.10;58.50;;;;;;5052533;28;20033;-80
2022/05/06 08:12:51;;;;;;;10.90;7.70;;;21.50;60.00;;;;;;5051751;28;20017;-80
2022/05/06 08:15:17;;;;;;;9.35;7.20;;;21.70;60.20;;;;;;5052307;28;20055;-78
2022/05/06 08:17:42;;;;;;;10.20;7.70;;;22.30;59.50;;;;;;5052161;28;20479;-83
2022/05/06 08:20:12;;;;;;;12.25;7.97;;;22.50;59.00;;;;;;5034562;28;20106;-77
2022/05/06 08:22:38;;;;;;;9.95;7.22;;;22.80;58.70;;;;;;5034740;28;20130;-80
2022/05/06 08:25:11;;;;;;;10.70;8.18;;;22.60;58.50;;;;;;5035079;28;20037;-84
2022/05/06 08:27:43;;;;;;;9.90;7.70;;;22.30;59.60;;;;;;5051900;28;20041;-85
2022/05/06 08:30:12;;;;;;;9.45;7.70;;;22.10;59.90;;;;;;5037804;28;20066;-87
2022/05/06 08:32:38;;;;;;;12.23;7.82;;;22.20;59.90;;;;;;5038636;28;20029;-80
2022/05/06 08:35:05;;;;;;;13.25;7.85;;;21.80;59.90;;;;;;5055459;28;20025;-80
2022/05/06 08:37:44;;;;;;;11.30;7.93;;;21.80;61.60;;;;;;5055319;28;20419;-78
2022/05/06 08:40:17;;;;;;;8.90;7.65;;;22.10;60.80;;;;;;5037676;28;20086;-77
2022/05/06 08:42:43;;;;;;;9.95;7.55;;;22.20;60.40;;;;;;5055756;28;20059;-78
2022/05/06 08:50:52;;;;;;;9.45;7.63;;;22.80;60.10;;;;;;5055724;28;20036;-82
2022/05/06 08:53:41;;;;;;;8.65;7.10;;;23.40;58.30;;;;;;5037535;28;20033;-78
2022/05/06 08:56:08;;;;;;;9.60;8.05;;;23.30;60.00;;;;;;5055307;28;20496;-78
2022/05/06 08:58:35;;;;;;;10.48;8.05;;;23.00;60.20;;;;;;5055675;28;20021;-83
2022/05/06 09:01:11;;;;;;;9.32;7.72;;;23.70;59.00;;;;;;5055616;28;20108;-79
2022/05/06 09:03:41;;;;;;;13.93;8.32;;;24.30;57.80;;;;;;5055221;28;20029;-78
2022/05/06 09:06:28;;;;;;;12.20;8.90;;;24.90;57.60;;;;;;5037503;28;20033;-78
2022/05/06 09:08:55;;;;;;;10.52;7.75;;;24.60;57.30;;;;;;5037038;28;20037;-82
2022/05/06 09:14:17;;;;;;;12.07;9.88;;;25.00;56.20;;;;;;5055280;28;20499;-82
2022/05/06 09:16:46;;;;;;;9.18;8.05;;;24.00;57.70;;;;;;5037168;28;20021;-79
2022/05/06 09:19:12;;;;;;;10.73;7.63;;;23.50;58.60;;;;;;5055005;28;20029;-80
2022/05/06 09:21:39;;;;;;;11.32;8.88;;;23.50;59.60;;;;;;5037039;28;20048;-81
2022/05/06 09:24:20;;;;;;;13.20;9.63;;;23.70;59.30;;;;;;5054839;28;20028;-79
2022/05/06 09:26:58;;;;;;;10.93;8.02;;;23.50;59.40;;;;;;5054886;28;20028;-76
2022/05/06 09:29:38;;;;;;;11.80;8.20;;;23.30;60.10;;;;;;5054742;28;20037;-78
2022/05/06 09:32:19;;;;;;;9.82;8.40;;;23.40;59.60;;;;;;5054842;28;20024;-78
2022/05/06 09:34:50;;;;;;;8.95;7.93;;;23.10;60.60;;;;;;5054616;28;20028;-78
2022/05/06 09:37:35;;;;;;;11.32;7.82;;;23.30;59.80;;;;;;5036992;28;20052;-80
2022/05/06 09:40:10;;;;;;;11.30;9.05;;;23.70;59.20;;;;;;5035808;28;20029;-79
2022/05/06 09:42:41;;;;;;;11.15;8.25;;;23.70;59.40;;;;;;5054415;28;20097;-77
2022/05/06 09:45:08;;;;;;;8.63;7.72;;;23.90;59.10;;;;;;5054527;28;20040;-79
2022/05/06 09:47:35;;;;;;;11.80;7.82;;;24.00;58.50;;;;;;5053988;28;20033;-79
2022/05/06 09:50:02;;;;;;;11.25;8.13;;;24.40;58.10;;;;;;5036470;28;20036;-78
2022/05/06 09:52:28;;;;;;;10.50;8.38;;;23.90;58.90;;;;;;5036568;28;20480;-79
2022/05/06 09:54:54;;;;;;;9.90;8.05;;;23.80;59.30;;;;;;5036209;28;20024;-81
2022/05/06 09:57:19;;;;;;;8.85;7.95;;;24.20;59.30;;;;;;5036436;28;20383;-78
2022/05/06 09:59:46;;;;;;;11.43;7.72;;;24.10;58.50;;;;;;5054047;28;20025;-79
2022/05/06 10:02:13;;;;;;;8.85;7.63;;;24.00;58.90;;;;;;5036130;28;20025;-78
2022/05/06 10:04:39;;;;;;;9.82;8.10;;;23.50;59.40;;;;;;5054348;28;20029;-89
2022/05/06 10:07:10;;;;;;;9.38;7.90;;;23.60;60.00;;;;;;5054370;28;20104;-76
2022/05/06 10:09:53;;;;;;;11.85;7.93;;;23.70;60.10;;;;;;5036198;28;20431;-77
2022/05/06 10:12:20;;;;;;;11.02;8.38;;;23.90;60.20;;;;;;5037638;28;20033;-77
2022/05/06 10:14:46;;;;;;;9.40;7.82;;;23.80;59.50;;;;;;5054538;28;20031;-90
2022/05/06 10:17:12;;;;;;;9.52;7.95;;;23.80;60.10;;;;;;5054596;28;20032;-78
2022/05/06 10:19:38;;;;;;;10.25;8.15;;;23.80;60.30;;;;;;5055228;28;20372;-78
2022/05/06 10:22:04;;;;;;;8.75;7.80;;;24.00;60.10;;;;;;5035976;28;20025;-78
2022/05/06 10:24:49;;;;;;;9.65;8.05;;;23.90;59.90;;;;;;5053346;28;20025;-79
2022/05/06 10:32:25;;;;;;;9.48;7.55;;;23.90;60.10;;;;;;5035841;28;20384;-80
2022/05/06 10:33:15;;;;;;;16.88;7.78;;;24.10;60.40;;;;;;5053641;28;20083;-79
2022/05/06 10:35:43;;;;;;;8.65;7.72;;;24.30;59.30;;;;;;5053600;28;20025;-79
2022/05/06 10:38:24;;;;;;;9.90;7.70;;;24.60;58.60;;;;;;5053125;28;20024;-80
2022/05/06 10:40:57;;;;;;;9.85;7.80;;;25.00;58.30;;;;;;5035492;28;20379;-78
2022/05/06 10:43:41;;;;;;;12.52;8.50;;;25.30;57.30;;;;;;5035330;28;20502;-78
2022/05/06 10:46:07;;;;;;;13.05;7.70;;;25.10;57.10;;;;;;5036020;28;20039;-76
2022/05/06 10:48:33;;;;;;;11.65;7.55;;;24.80;57.60;;;;;;5052667;28;20049;-78
2022/05/06 10:51:22;;;;;;;11.05;7.93;;;24.70;57.50;;;;;;5035631;28;20032;-80
2022/05/06 10:53:48;;;;;;;10.02;7.60;;;24.70;58.20;;;;;;5035169;28;20387;-78
2022/05/06 10:56:17;;;;;;;11.23;7.32;;;25.00;58.10;;;;;;5052889;28;20036;-76
2022/05/06 10:58:43;;;;;;;9.15;7.22;;;25.30;57.40;;;;;;5035227;28;20025;-77
2022/05/06 11:01:16;;;;;;;11.00;7.78;;;25.50;56.90;;;;;;5053028;28;20087;-77
2022/05/06 11:03:52;;;;;;;10.73;8.13;;;25.30;57.40;;;;;;5052904;28;20017;-78
2022/05/06 11:06:21;;;;;;;10.00;7.68;;;24.90;57.90;;;;;;5053071;28;20116;-78
2022/05/06 11:08:47;;;;;;;9.07;7.72;;;25.00;57.80;;;;;;5052810;28;20045;-77
2022/05/06 11:11:17;;;;;;;10.95;7.78;;;24.90;57.80;;;;;;5035018;28;20029;-82
2022/05/06 11:13:53;;;;;;;9.55;7.95;;;24.90;58.30;;;;;;5053355;28;20471;-79
2022/05/06 11:16:20;;;;;;;9.45;7.80;;;24.90;57.50;;;;;;5035389;28;20511;-80
2022/05/06 11:18:48;;;;;;;11.13;8.15;;;24.40;58.20;;;;;;5052591;28;20037;-79
2022/05/06 11:21:24;;;;;;;11.95;7.57;;;24.50;58.30;;;;;;5053033;28;20108;-81
2022/05/06 11:23:50;;;;;;;8.85;7.40;;;24.40;58.60;;;;;;5053124;28;20078;-89
2022/05/06 11:26:26;;;;;;;10.18;7.10;;;24.70;58.30;;;;;;5054191;28;20029;-77
2022/05/06 11:29:05;;;;;;;11.13;7.85;;;25.40;57.40;;;;;;5035218;28;20044;-77
2022/05/06 11:31:31;;;;;;;11.07;7.25;;;25.60;58.10;;;;;;5052650;28;20028;-78
2022/05/06 11:34:04;;;;;;;7.85;6.88;;;25.30;57.00;;;;;;5054179;28;20108;-81
2022/05/06 11:36:30;;;;;;;8.57;7.63;;;25.20;58.10;;;;;;5052948;28;20025;-78
2022/05/06 11:38:56;;;;;;;10.52;7.55;;;25.00;57.70;;;;;;5053710;28;20033;-77
2022/05/06 11:41:24;;;;;;;8.73;7.82;;;25.30;57.70;;;;;;5052638;28;20029;-76
2022/05/06 11:43:50;;;;;;;9.70;7.60;;;25.50;57.30;;;;;;5035193;28;20501;-78
2022/05/06 11:49:05;;;;;;;9.10;7.40;;;25.00;58.10;;;;;;5053000;28;20048;-88
2022/05/06 11:51:44;;;;;;;10.13;7.70;;;25.30;57.70;;;;;;5052721;28;20032;-79
2022/05/06 11:54:10;;;;;;;10.15;7.28;;;25.30;57.30;;;;;;5034785;28;20106;-79
2022/05/06 11:56:38;;;;;;;8.18;7.25;;;25.20;58.10;;;;;;5037130;28;20017;-79
2022/05/06 11:59:05;;;;;;;9.05;7.57;;;25.10;58.20;;;;;;5055290;28;20025;-76
2022/05/06 12:01:33;;;;;;;10.13;7.45;;;24.70;58.30;;;;;;5034897;28;20452;-89
2022/05/06 12:04:09;;;;;;;11.15;7.10;;;24.80;58.40;;;;;;5035982;28;20075;-78
2022/05/06 12:06:42;;;;;;;11.73;7.05;;;25.10;57.90;;;;;;5056946;28;20036;-80
2022/05/06 12:09:08;;;;;;;10.48;7.25;;;25.20;57.40;;;;;;5056474;28;20045;-79
2022/05/06 12:11:34;;;;;;;10.30;6.85;;;24.60;57.40;;;;;;5039458;28;20029;-90
2022/05/06 12:14:19;;;;;;;8.48;6.75;;;24.60;58.50;;;;;;5038766;28;20078;-84
2022/05/06 12:16:55;;;;;;;10.65;6.80;;;25.10;56.90;;;;;;5039363;28;20024;-77
2022/05/06 12:19:36;;;;;;;11.43;6.85;;;24.90;56.20;;;;;;5039704;28;20083;-79
2022/05/06 12:22:03;;;;;;;11.80;7.32;;;24.90;56.20;;;;;;5038595;28;20475;-83
2022/05/06 12:24:46;;;;;;;12.50;8.63;;;25.00;55.70;;;;;;5055672;28;20029;-85
2022/05/06 12:27:13;;;;;;;8.48;6.95;;;24.80;56.00;;;;;;5056216;28;20119;-82
2022/05/06 12:29:40;;;;;;;8.30;6.28;;;25.00;56.20;;;;;;5039599;28;20033;-78
2022/05/06 12:32:06;;;;;;;9.68;6.55;;;25.00;55.90;;;;;;5039334;28;20065;-78
2022/05/06 12:34:33;;;;;;;7.75;5.93;;;24.80;56.90;;;;;;5056907;28;20029;-78
2022/05/06 12:37:20;;;;;;;7.30;5.72;;;24.90;57.00;;;;;;5037808;28;20468;-77
2022/05/06 12:39:48;;;;;;;10.30;6.00;;;25.10;56.70;;;;;;5055970;28;20025;-89
2022/05/06 12:42:21;;;;;;;10.05;6.03;;;25.30;56.10;;;;;;5037935;28;20112;-79
2022/05/06 12:44:47;;;;;;;7.57;5.88;;;25.50;55.70;;;;;;5055781;28;20518;-78
2022/05/06 12:50:09;;;;;;;7.55;6.03;;;25.30;55.60;;;;;;5056038;28;20051;-78
2022/05/06 12:52:36;;;;;;;11.57;6.28;;;25.20;55.80;;;;;;5034995;28;20017;-89
2022/05/06 12:55:03;;;;;;;6.93;5.85;;;25.40;56.40;;;;;;5058464;28;20029;-80
2022/05/06 12:57:28;;;;;;;7.88;6.13;;;25.80;55.20;;;;;;5055273;28;20055;-78
2022/05/06 12:59:54;;;;;;;6.38;5.40;;;25.90;54.80;;;;;;5055464;28;20472;-83
2022/05/06 13:02:20;;;;;;;8.48;5.78;;;25.90;54.90;;;;;;5055746;28;20021;-87
2022/05/06 13:04:47;;;;;;;7.68;5.88;;;26.00;53.80;;;;;;5055538;28;20033;-81
2022/05/06 13:07:13;;;;;;;9.73;5.82;;;25.50;54.20;;;;;;5039832;28;20021;-84
2022/05/06 13:09:42;;;;;;;7.20;5.93;;;24.90;55.50;;;;;;5055003;28;20036;-81
2022/05/06 13:12:12;;;;;;;9.35;6.20;;;24.90;55.20;;;;;;5055322;28;20391;-81
2022/05/06 13:14:37;;;;;;;7.18;5.75;;;25.30;56.10;;;;;;5055379;28;20055;-80
2022/05/06 13:17:04;;;;;;;8.07;6.20;;;25.50;55.80;;;;;;5037655;28;20108;-82
2022/05/06 13:19:30;;;;;;;8.50;5.80;;;25.60;54.90;;;;;;5037177;28;20021;-78
2022/05/06 13:21:56;;;;;;;7.80;6.25;;;25.40;55.30;;;;;;5038388;28;20029;-78
2022/05/06 13:24:23;;;;;;;7.43;5.80;;;25.50;54.90;;;;;;5054543;28;20030;-82
2022/05/06 13:26:49;;;;;;;6.40;5.53;;;25.70;54.50;;;;;;5055776;28;20032;-78